Jump to content

  •  

DELTA AIRLINES FLIGHT DL694 FLOWN ON 08-08-2017 BY CAPTAIN JIM BOERMAN

Pilot StatsCaptain Jim Boerman (LDP136) • 4,686.4 total hours • 1,423 total flights [View Logbook]
FLIGHT DETAILS
StatusReceived and approved on 2017-08-08 at 11:08:14
Origin AirportHartsfield - Jackson Atlanta I (KATL) • Atlanta, Georgia, United States (1,026 feet MSL)
Filed Flight PlanFLIGHT PLANNER OFFLINE
Destination AirportRoatan Intl (MHRO) • Roatan, Honduras (18 feet MSL)
Alternate AirportLa Mesa Intl (MHLM) • San Pedro Sula, Honduras (83 feet MSL)
AirlineDelta Airlines
AircraftBoeing 757-200 | Winglets (75W / B757-200)
FS Aircraft UsedQWSim Boeing 757-200WL Delta N688DL QWHDT
Cruising AltitudeFL340
Distance Flown1,046 nautical miles
Passengers Onboard111 passengers (59.68% full)
DEPARTURE DETAILS
Time Out08:30:23
Taxi Data215,259 lbs total with 30,968 lbs of fuel onboard
Takeoff Data08:43:48 (13 minutes after leaving gate/ramp) • 213,657 lbs total • 7° pitch at 175 knots
Departure METARKATL 081127Z 29005KT 6SM -RA BR FEW004 SCT030 OVC050 22/21 A3004 RMK AO2 RAB14 P0003 T02170206
ARRIVAL DETAILS
Landing Data10:29:09 • 190,183 lbs total • 1° pitch doing 141 knots at a rate of -65.36 feet/minute with 5,300 lbs of fuel onboard
Time In10:34:56 (6 minutes after landing)
Ramp Weight189,591 lbs total
Total Fuel Used25,668 lbs
Total Block Time03:01:46 (3 hours) while 19 minutes were spent on the ground
Arrival METARMHRO 081500Z 08003KT 9999 SCT020 SCT080 30/26 Q1011 A2986 NOSIG
MISCELLANEOUS DETAILS
LiveDISPATCH Version4.8.3.1
FS Version
FSUIPC Version4.93
OS VersionWindows 7 32-bit
Screen Resolution1920 x 1080
Pilot's CommentsNo Comments Reported
FLIGHT MAP